Macksville, Kansas
Current Conditions -  °F | °C
As of 2:15 AM on Sunday 21 Dec 2014 (Local Time) from KPTT Reporting Station
Haze Haze  
Wind Chill: 26°   Ceiling: 200
Heat Index: 36°   Visibility: 0.75mi
Dew Point: 36°   Wind: 15mph
Humidity: 100%   Direction: 210°SSW
Pressure: 30.01"   Gusts: NA
Location:  37.96°N, 98.97°W
Report Text: KPTT 210815Z AUTO 21013KT 3/4SM BR OVC002 02/02 A3001 RMK AO2
Loading
Personal Weather Stations






























Interactive Weather Map New forecast layout! Learn more

10-Day Weather Forecast

Advertisements
Track Severe Weather on mobile